North Central West Virginia Airport
KCKB : now visible

Airfield :











YOU CAN JOIN US ON...

 
LOGIN :

Register | Disclaimer

   EN    FR    IT 

 









Legend :    VFR   Marginal VFR   IFR   Intensive IFR   Very Intensive IFR
Visi :
Ceiling :
>= 8 km
>= 3000ft
5 to 8 km
1000 to 3000 ft
1500m to 5 km
500 to 1000 ft
800 to 1500m
200 to 500 ft
< 800m
< 200 ft
Symbols :   Thunderstorms  Fog  Heavy snow  Heavy precipitations  Wind > 20 kt







- Airport Elevation : 1217 ft
- IATA code : CKB


KCKB - North Central West Virginia

CURRENT METAR :
  • 220153Z 00000KT 10SM OVC045 11/06 A3019 RMK AO2 SLP220 T01110056

EXPIRED METARs :
  • 220053Z 26004KT 10SM OVC042 11/05 A3018 RMK AO2 SLP216 T01110050
  • 212353Z 28006KT 10SM SCT034 OVC041 12/05 A3016 RMK AO2 SLP209 T01170050 10122 20106 53015
  • 212336Z 28005KT 10SM FEW025 BKN031 OVC041 12/06 A3015 RMK AO2 T01170056

TAF KCKB
Valid from the 22 at 00:00 until the 23 at 00:00 UTC


212325Z 2200/2224 VRB03KT P6SM BKN035
FM220600 00000KT 5SM BR BKN030
FM220900 00000KT 3SM BR BKN016
TEMPO 2209/2212 1/4SM FG OVC001
FM221500 00000KT P6SM SCT120
FM221800 28005KT P6SM SKC
KZOB FIR / North America



MET'MAP, your aeronautical weather chart ! - Copyright ORBIFLY December 2007 - Disclaimer

ORBIFLY MET'MAP TEAM :

Programming & Development : Alexandra Zaïnal
Concept & Development : Baudouin d'Aumeries
Co-Development & Prog : Marc-Olivier Méhu
Technical & hardware support : Manuel Goepfert

Contact : metmap@orbifly.com




SOURCES & CREDITS :

   NOAA       Earth
Advisory